• Join FlightAware (Why Join?)
  • Login
  • US Flag 
02:51AM EDT


 

Airport Tracker/Info


-or-


 

Live Flight TrackerFlight Track Log ✈ JBU56 ✈ 27-Sep-2013 ✈ KIAD - KBOS

Flight Track Log - Related Links

Times and Time Zones

All times are in EDT time to prevent confusion due to time zone crossing. See the JBU56 flight status page for this flight to view local times or setup timezone preferences in your user account.

Time Position Orientation Groundspeed Altitude Reporting Facility
EDT Latitude Longitude Course Direction KTS MPH feet Rate Location/Type
09:09AM 38.9833 -77.5167 67° East 194 223 2,300  Level Potomac TRACON
09:10AM 39.0333 -77.5500 333° Northwest 243 280 4,300 2,640 Climbing Potomac TRACON
09:11AM 39.1752 -77.0686 90° East  Level Estimated
09:11AM 39.1000 -77.5167 21° North 256 295 7,600  Level Potomac TRACON
09:12AM 39.2319 -76.9703 74° East  Level Estimated
09:12AM 39.1667 -77.4667 30° Northeast 285 328 10,000  Level Potomac TRACON
09:13AM 39.2715 -76.9016 90° East  Level Estimated
09:13AM 39.1744 -77.2972 87° East 357 411 11,600  Level Washington Center
09:14AM 39.3110 -76.8329 67° East  Level Estimated
09:14AM 39.1364 -77.1783 112° Southeast 352 405 13,900  Level Washington Center
09:15AM 39.0983 -77.0492 111° Southeast 363 418 16,200 2,040 Climbing Washington Center
09:16AM 39.0875 -76.9072 96° East 374 430 18,000 1,380 Climbing Washington Center
09:17AM 39.1014 -76.7658 83° East 386 444 19,000 720 Climbing Washington Center
09:23AM 39.1770 -76.0020 83° East 402 463 23,000 600 Climbing FlightAware
09:23AM 39.1870 -75.9150 82° East 402 463 23,000  Level FlightAware
09:24AM 39.1950 -75.8420 82° East 402 463 23,000 2,580 Level FlightAware
09:24AM 39.2650 -75.7860 32° Northeast 402 463 25,700 3,960 Climbing FlightAware
09:25AM 39.3010 -75.7400 45° Northeast 411 473 26,400 1,560 Climbing FlightAware
09:25AM 39.3500 -75.6770 45° Northeast 412 474 27,300 1,380 Climbing FlightAware
09:26AM 39.3860 -75.6290 46° Northeast 417 480 27,900 1,200 Climbing FlightAware
09:26AM 39.4090 -75.6000 44° Northeast 420 483 28,200 1,200 Climbing FlightAware
09:27AM 39.4650 -75.5260 46° Northeast 428 493 29,000 1,320 Climbing FlightAware
09:27AM 39.5080 -75.4710 45° Northeast 432 497 29,800 1,380 Climbing FlightAware
09:28AM 39.5570 -75.4060 46° Northeast 429 494 30,500 1,020 Climbing FlightAware
09:29AM 39.6050 -75.3430 45° Northeast 436 502 31,000 420 Climbing FlightAware
09:29AM 39.6530 -75.2800 45° Northeast 438 504 31,000  Level FlightAware
09:30AM 39.7080 -75.2030 47° Northeast 435 501 31,000  Level FlightAware
09:31AM 39.7750 -75.1070 48° Northeast 438 504 31,000  Level FlightAware
09:31AM 39.8220 -75.0420 47° Northeast 438 504 31,000  Level FlightAware
09:32AM 39.8650 -74.9810 47° Northeast 438 504 31,000  Level FlightAware
09:32AM 39.9080 -74.9220 46° Northeast 438 504 31,000  Level FlightAware
09:33AM 39.9520 -74.8590 48° Northeast 438 504 31,000  Level FlightAware
09:34AM 39.9970 -74.7970 47° Northeast 438 504 31,000  Level FlightAware
09:35AM 40.0520 -74.7200 47° Northeast 438 504 31,000  Level FlightAware
09:35AM 40.1080 -74.6410 47° Northeast 438 504 31,000  Level FlightAware
09:36AM 40.1520 -74.5800 47° Northeast 438 504 31,000  Level FlightAware
09:37AM 40.1940 -74.5200 47° Northeast 438 504 31,000  Level FlightAware
09:37AM 40.2480 -74.4440 47° Northeast 438 504 31,000  Level FlightAware
09:38AM 40.2900 -74.3850 47° Northeast 438 504 31,000  Level FlightAware
09:39AM 40.3330 -74.3250 47° Northeast 438 504 31,000  Level FlightAware
09:39AM 40.3760 -74.2640 47° Northeast 438 504 31,000  Level FlightAware
09:40AM 40.4200 -74.2030 47° Northeast 438 504 31,000  Level FlightAware
09:40AM 40.4630 -74.1420 47° Northeast 438 504 31,000 -2,220 Level FlightAware
09:43AM 40.6558 -73.6411 47° Northeast 377 434 24,000 -1,980 Descending Boston Center
09:44AM 40.7361 -73.5575 38° Northeast 377 434 24,000  Level Boston Center
09:45AM 40.8244 -73.4714 36° Northeast 382 440 24,000 -120 Level Boston Center
09:46AM 40.9003 -73.3736 44° Northeast 382 440 23,800 -540 Descending Boston Center
09:47AM 40.9844 -73.2567 46° Northeast 382 440 23,000 -420 Descending Boston Center
09:48AM 41.0603 -73.1475 47° Northeast 394 453 23,000  Level Boston Center
09:49AM 41.1275 -73.0436 49° Northeast 404 465 23,000  Level Boston Center
09:50AM 41.2031 -72.9283 49° Northeast 414 476 23,000  Level Boston Center
09:51AM 41.2619 -72.7992 59° Northeast 414 476 23,000  Level Boston Center
09:52AM 41.3206 -72.6447 63° Northeast 414 476 23,000  Level Boston Center
09:53AM 41.3708 -72.5064 64° Northeast 414 476 23,000 -300 Level Boston Center
09:54AM 41.4208 -72.3708 64° Northeast 409 471 22,500 -840 Descending Boston Center
09:55AM 41.4644 -72.2517 64° Northeast 402 463 21,400 -1,200 Descending Boston Center
09:56AM 41.5122 -72.1186 64° Northeast 397 457 20,200 -1,560 Descending Boston Center
09:57AM 41.5636 -71.9739 65° Northeast 397 457 18,400 -1,860 Descending Boston Center
09:58AM 41.6028 -71.8461 68° East 381 438 16,600 -1,920 Descending Boston Center
09:59AM 41.6356 -71.7375 68° East 355 409 14,600 -2,220 Descending Boston Center
10:00AM 41.6719 -71.6064 70° East 344 396 12,200 -1,800 Descending Boston Center
10:01AM 41.7025 -71.5058 68° East 326 375 11,100 -600 Descending Boston Center
10:02AM 41.7369 -71.3997 66° East 300 345 11,100 -60 Level Boston Center
10:03AM 41.7822 -71.3208 52° Northeast 287 330 11,000 -60 Descending Boston Center
10:04AM 41.8400 -71.2614 37° Northeast 258 297 11,000 -480 Level Boston Center
10:05AM 41.8939 -71.2325 22° Northeast 231 266 10,100 -1,140 Descending Boston Center
10:06AM 41.9600 -71.2006 20° North 231 266 8,800 -1,140 Descending Boston Center
10:07AM 42.0142 -71.1769 18° North 226 260 7,800 -960 Descending Boston Center
10:08AM 42.0761 -71.1450 21° North 221 254 6,900 -900 Descending Boston Center
10:09AM 42.1156 -71.1247 21° North 193 222 6,100 -1,080 Descending Boston Center
10:10AM 42.1653 -71.1039 17° North 166 191 4,900 -1,320 Descending Boston Center
10:11AM 42.2025 -71.0836 22° Northeast 161 185 3,500 -1,260 Descending Boston Center
10:12AM 42.2461 -71.0631 19° North 156 180 2,400 -1,020 Descending Boston Center
10:13AM 42.2833 -71.0453 19° North 156 180 1,500 -720 Descending Boston Center
10:14AM 42.3250 -71.0275 18° North 150 173 1,000 -480 Descending Boston Center
10:15AM 42.3622 -71.0128 16° North 145 167 600 -420 Descending Boston Center